Terminal Aerodrome Forecast
Issued by NWS Glasgow, MT

Home | Current Version | Previous Version | Text Only | Print | Product List | Glossary On
Versions: 1 2 3 4 5 6 7 8 9 10 11 12 13 14 15 16 17
000
FTUS45 KGGW 071700
TAFGGW
TAF
KGGW 071720Z 0718/0818 VRB04KT P6SM FEW080
     FM072100 32013KT P6SM VCSH BKN070
     FM080300 03006KT P6SM SCT100
      TEMPO 0805/0809 4SM FU=

USA.gov is the U.S. government's official web portal to all federal, state and local government web resources and services.